Details for Flybe at EGPF




Go Back


Latest METAR
Local Time

EGPF 250420Z AUTO 09004KT 4200 HZ BKN005 09/08 Q1025

25/05/2018, 05:48:04

Description
Results
Flybe Logo
Number of Pilots based at EGPF
2 Pilots Based here
Number of Flybe Flights Departed from EGPF
10 Flights Departed
Number of Flybe Flights Arrived at EGPF
9 Flights Arrived
Number of Flybe Schedules Departing from EGPF
29 Schedules
Number of Flybe Schedules Arriving at EGPF
30 Schedules
Number of Flybe Schedules Departing from EGPF availible today
24 Schedules Today
Number of Flybe Schedules Arriving at EGPF availible today
24 Schedules Today
Average Landing Rate at EGPF
-208 fpm
Flybe Average Landing Rate at EGPF
-314 fpm
Total Fuel Purchased at EGPF by Flybe
20,324.56 kgs / 44,807.52 lbs

Pilots Based at EGPF


Pilot ID
Pilot Name
Pilot Rank
No. of Flights
No. of Flying Hours
Renaat Meeuws
44
68.47
Thomas Bell
369
622.32
Content